Time;durP1;ratioP1;P1;durP2;ratioP2;P2;SDS_P1;SDS_P2;PMS_P1;PMS_P2;Temp;Humidity;BMP_temperature;BMP_pressure;BME280_temperature;BME280_humidity;BME280_pressure;Samples;Min_cycle;Max_cycle;Signal;HPM_P1;HPM_P2
2022/03/26 00:00:05;;;;;;;;;;;9.50;71.90;;;;;;5056173;28;20014;-66
2022/03/26 00:02:30;;;;;;;;;;;9.40;71.90;;;;;;5049201;28;20007;-66
2022/03/26 00:04:56;;;;;;;;;;;9.40;71.90;;;;;;5041442;28;20054;-66
2022/03/26 00:07:21;;;;;;;;;;;9.40;71.90;;;;;;5059656;28;19912;-66
2022/03/26 00:09:47;;;;;;;;;;;9.30;72.00;;;;;;5053799;28;19921;-66
2022/03/26 00:12:12;;;;;;;;;;;9.40;72.00;;;;;;5050811;28;20441;-66
2022/03/26 00:14:38;;;;;;;;;;;9.30;71.80;;;;;;5057301;28;19916;-66
2022/03/26 00:17:04;;;;;;;;;;;9.30;71.90;;;;;;5055632;28;20462;-66
2022/03/26 00:19:29;;;;;;;;;;;9.30;72.00;;;;;;5052893;28;19912;-66
2022/03/26 00:21:55;;;;;;;;;;;9.30;72.00;;;;;;5046198;28;19962;-66
2022/03/26 00:24:20;;;;;;;;;;;9.30;72.00;;;;;;5039173;28;19908;-66
2022/03/26 00:26:46;;;;;;;;;;;9.30;72.10;;;;;;5052741;28;20297;-66
2022/03/26 00:29:11;;;;;;;;;;;9.20;72.00;;;;;;5052360;28;19925;-66
2022/03/26 00:31:37;;;;;;;;;;;9.20;72.10;;;;;;5046813;28;20567;-66
2022/03/26 00:34:06;;;;;;;;;;;9.20;72.10;;;;;;5059916;28;19912;-66
2022/03/26 00:36:32;;;;;;;;;;;9.20;72.00;;;;;;5043372;28;20408;-66
2022/03/26 00:38:57;;;;;;;;;;;9.20;72.10;;;;;;5052231;28;19978;-66
2022/03/26 00:41:23;;;;;;;;;;;9.10;72.10;;;;;;5055896;28;19912;-66
2022/03/26 00:43:49;;;;;;;;;;;9.10;72.10;;;;;;5030821;28;19974;-66
2022/03/26 00:46:14;;;;;;;;;;;9.10;72.10;;;;;;5051127;28;19912;-66
2022/03/26 00:48:40;;;;;;;;;;;9.10;72.10;;;;;;5054386;28;19970;-66
2022/03/26 00:51:06;;;;;;;;;;;9.10;72.10;;;;;;5057695;28;20407;-66
2022/03/26 00:53:31;;;;;;;;;;;9.00;72.10;;;;;;5058359;28;19939;-66
2022/03/26 00:55:57;;;;;;;;;;;9.00;72.10;;;;;;5052319;28;20007;-66
2022/03/26 00:58:22;;;;;;;;;;;9.00;72.10;;;;;;5060303;28;20030;-66
2022/03/26 01:00:48;;;;;;;;;;;9.00;72.10;;;;;;5059747;28;19916;-66
2022/03/26 01:03:16;;;;;;;;;;;9.00;72.10;;;;;;5033461;28;20396;-66
2022/03/26 01:05:42;;;;;;;;;;;9.00;72.20;;;;;;5056956;28;20000;-66
2022/03/26 01:08:07;;;;;;;;;;;8.90;72.20;;;;;;5040265;28;20008;-66
2022/03/26 01:10:33;;;;;;;;;;;8.90;72.20;;;;;;5038049;28;19966;-66
2022/03/26 01:12:58;;;;;;;;;;;8.90;72.30;;;;;;5033587;28;19913;-66
2022/03/26 01:15:24;;;;;;;;;;;8.90;72.20;;;;;;5042015;28;19912;-66
2022/03/26 01:17:50;;;;;;;;;;;8.90;72.30;;;;;;5059486;28;20055;-66
2022/03/26 01:20:17;;;;;;;;;;;8.80;72.30;;;;;;5058921;28;19919;-66
2022/03/26 01:22:43;;;;;;;;;;;8.80;72.30;;;;;;5053736;28;19912;-66
2022/03/26 01:25:09;;;;;;;;;;;8.80;72.30;;;;;;5063463;28;19952;-66
2022/03/26 01:27:34;;;;;;;;;;;8.80;72.30;;;;;;5057796;28;19995;-66
2022/03/26 01:30:00;;;;;;;;;;;8.80;72.40;;;;;;5057029;28;20470;-66
2022/03/26 01:32:25;;;;;;;;;;;8.70;72.30;;;;;;5058416;28;19909;-66
2022/03/26 01:34:51;;;;;;;;;;;8.70;72.40;;;;;;5055886;28;19974;-66
2022/03/26 01:37:16;;;;;;;;;;;8.70;72.40;;;;;;5060172;28;19966;-66
2022/03/26 01:39:42;;;;;;;;;;;8.70;72.40;;;;;;5062605;28;20011;-66
2022/03/26 01:42:08;;;;;;;;;;;8.70;72.50;;;;;;5061548;28;19923;-66
2022/03/26 01:44:33;;;;;;;;;;;8.70;72.60;;;;;;5044741;28;20246;-66
2022/03/26 01:47:00;;;;;;;;;;;8.60;72.40;;;;;;5036578;28;20533;-66
2022/03/26 01:49:27;;;;;;;;;;;8.60;72.50;;;;;;5061279;28;20377;-66
2022/03/26 01:51:52;;;;;;;;;;;8.60;72.50;;;;;;5037995;28;19917;-66
2022/03/26 01:54:19;;;;;;;;;;;8.60;72.50;;;;;;5043707;28;19909;-66
2022/03/26 01:56:44;;;;;;;;;;;8.60;72.60;;;;;;5054192;28;20273;-66
2022/03/26 01:59:11;;;;;;;;;;;8.50;72.50;;;;;;5035259;28;20007;-66
2022/03/26 02:01:36;;;;;;;;;;;8.50;72.50;;;;;;5053720;28;19978;-66
2022/03/26 02:04:03;;;;;;;;;;;8.50;72.60;;;;;;5061228;28;20544;-66
2022/03/26 02:06:32;;;;;;;;;;;8.50;72.60;;;;;;5061988;28;20035;-66
2022/03/26 02:09:01;;;;;;;;;;;8.50;72.50;;;;;;5057924;28;20411;-66
2022/03/26 02:11:30;;;;;;;;;;;8.50;72.60;;;;;;5058230;28;19998;-66
2022/03/26 02:13:57;;;;;;;;;;;8.40;72.50;;;;;;5054948;28;20016;-66
2022/03/26 02:16:23;;;;;;;;;;;8.40;72.50;;;;;;5061226;28;19920;-66
2022/03/26 02:18:49;;;;;;;;;;;8.40;72.50;;;;;;5055816;28;19917;-66
2022/03/26 02:21:16;;;;;;;;;;;8.40;72.60;;;;;;5062021;28;20015;-66
2022/03/26 02:23:42;;;;;;;;;;;8.40;72.60;;;;;;5058391;28;19920;-66
2022/03/26 02:26:08;;;;;;;;;;;8.40;72.60;;;;;;5053937;28;20200;-66
2022/03/26 02:28:34;;;;;;;;;;;8.40;72.60;;;;;;5032433;28;19939;-66
2022/03/26 02:31:00;;;;;;;;;;;8.40;72.60;;;;;;5034884;28;19912;-66
2022/03/26 02:33:25;;;;;;;;;;;8.30;72.60;;;;;;5032541;28;19909;-66
2022/03/26 02:35:51;;;;;;;;;;;8.30;72.70;;;;;;5055134;28;19986;-66
2022/03/26 02:38:17;;;;;;;;;;;8.30;72.70;;;;;;5058945;28;19916;-66
2022/03/26 02:40:44;;;;;;;;;;;8.30;72.70;;;;;;5058781;28;19916;-66
2022/03/26 02:43:10;;;;;;;;;;;8.30;72.70;;;;;;5037281;28;19912;-66
2022/03/26 02:45:35;;;;;;;;;;;8.20;72.60;;;;;;5056783;28;20016;-66
2022/03/26 02:48:01;;;;;;;;;;;8.30;72.70;;;;;;5048446;28;19924;-66
2022/03/26 02:50:26;;;;;;;;;;;8.20;72.70;;;;;;5033662;28;19917;-66
2022/03/26 02:52:52;;;;;;;;;;;8.20;72.70;;;;;;5054696;28;20009;-66
2022/03/26 02:55:18;;;;;;;;;;;8.20;72.70;;;;;;5055012;28;20601;-66
2022/03/26 02:57:46;;;;;;;;;;;8.20;72.80;;;;;;5062649;28;19970;-66
2022/03/26 03:00:13;;;;;;;;;;;8.20;72.80;;;;;;5055523;28;19916;-66
2022/03/26 03:02:40;;;;;;;;;;;8.20;72.80;;;;;;5051631;28;19913;-66
2022/03/26 03:05:05;;;;;;;;;;;8.10;72.80;;;;;;5058134;28;20001;-66
2022/03/26 03:07:32;;;;;;;;;;;8.10;72.80;;;;;;5060295;28;20011;-66
2022/03/26 03:09:58;;;;;;;;;;;8.10;72.90;;;;;;5053436;28;19924;-66
2022/03/26 03:12:26;;;;;;;;;;;8.10;72.90;;;;;;5049131;28;19973;-66
2022/03/26 03:14:52;;;;;;;;;;;8.10;72.90;;;;;;5059288;28;19940;-66
2022/03/26 03:17:17;;;;;;;;;;;8.00;72.90;;;;;;5041791;28;20277;-66
2022/03/26 03:19:43;;;;;;;;;;;8.00;72.90;;;;;;5040996;28;19912;-66
2022/03/26 03:22:08;;;;;;;;;;;8.00;72.80;;;;;;5056196;28;20007;-66
2022/03/26 03:24:34;;;;;;;;;;;8.00;72.90;;;;;;5041091;28;20407;-66
2022/03/26 03:27:00;;;;;;;;;;;8.00;72.80;;;;;;5055294;28;20720;-66
2022/03/26 03:29:25;;;;;;;;;;;8.00;72.90;;;;;;5051041;28;19970;-66
2022/03/26 03:31:50;;;;;;;;;;;8.00;72.90;;;;;;5042424;28;20003;-66
2022/03/26 03:34:16;;;;;;;;;;;8.00;73.00;;;;;;5059561;28;19943;-66
2022/03/26 03:36:41;;;;;;;;;;;7.90;72.90;;;;;;5050367;28;19913;-66
2022/03/26 03:39:07;;;;;;;;;;;7.90;73.00;;;;;;5051005;28;20483;-66
2022/03/26 03:41:34;;;;;;;;;;;7.90;72.90;;;;;;5058358;28;19912;-66
2022/03/26 03:44:02;;;;;;;;;;;7.90;72.90;;;;;;5057298;28;19912;-66
2022/03/26 03:46:29;;;;;;;;;;;7.90;72.90;;;;;;5051607;28;19932;-67
2022/03/26 03:48:55;;;;;;;;;;;7.90;73.00;;;;;;5038890;28;20393;-66
2022/03/26 03:51:20;;;;;;;;;;;7.90;73.00;;;;;;5060348;28;19948;-66
2022/03/26 03:53:46;;;;;;;;;;;7.80;73.00;;;;;;5053262;28;20395;-66
2022/03/26 03:56:11;;;;;;;;;;;7.80;72.90;;;;;;5048697;28;19913;-66
2022/03/26 03:58:37;;;;;;;;;;;7.80;73.00;;;;;;5057245;28;19930;-66
2022/03/26 04:01:03;;;;;;;;;;;7.80;73.00;;;;;;5060052;28;19917;-66
2022/03/26 04:03:29;;;;;;;;;;;7.80;73.10;;;;;;5051941;28;19916;-66
2022/03/26 04:05:54;;;;;;;;;;;7.70;73.10;;;;;;5029633;28;20230;-66
2022/03/26 04:08:21;;;;;;;;;;;7.70;73.10;;;;;;5060356;28;20303;-66
2022/03/26 04:10:47;;;;;;;;;;;7.70;73.00;;;;;;5030743;28;20804;-66
2022/03/26 04:13:12;;;;;;;;;;;7.70;73.10;;;;;;5032924;28;19916;-66
2022/03/26 04:15:38;;;;;;;;;;;7.70;73.10;;;;;;5060231;28;19927;-66
2022/03/26 04:18:03;;;;;;;;;;;7.70;73.10;;;;;;5061283;28;19962;-66
2022/03/26 04:20:29;;;;;;;;;;;7.70;73.10;;;;;;5033302;28;19917;-66
2022/03/26 04:22:54;;;;;;;;;;;7.70;73.20;;;;;;5054393;28;19999;-66
2022/03/26 04:25:20;;;;;;;;;;;7.60;73.20;;;;;;5068510;28;20280;-66
2022/03/26 04:27:46;;;;;;;;;;;7.60;73.10;;;;;;5060349;28;19962;-67
2022/03/26 04:30:12;;;;;;;;;;;7.60;73.20;;;;;;5055415;28;19917;-66
2022/03/26 04:32:38;;;;;;;;;;;7.60;73.10;;;;;;5055254;28;20388;-66
2022/03/26 04:35:04;;;;;;;;;;;7.60;73.10;;;;;;5047428;28;19959;-66
2022/03/26 04:37:29;;;;;;;;;;;7.60;73.10;;;;;;5061109;28;19944;-66
2022/03/26 04:39:55;;;;;;;;;;;7.60;73.20;;;;;;5053722;28;19958;-66
2022/03/26 04:42:20;;;;;;;;;;;7.50;73.20;;;;;;5062611;28;20239;-66
2022/03/26 04:44:46;;;;;;;;;;;7.50;73.20;;;;;;5063695;28;19915;-66
2022/03/26 04:47:12;;;;;;;;;;;7.50;73.20;;;;;;5059609;28;20223;-66
2022/03/26 04:49:37;;;;;;;;;;;7.50;73.30;;;;;;5041286;28;19967;-66
2022/03/26 04:52:03;;;;;;;;;;;7.50;73.20;;;;;;5044590;28;20042;-66
2022/03/26 04:54:28;;;;;;;;;;;7.50;73.20;;;;;;5061450;28;19927;-66
2022/03/26 04:56:54;;;;;;;;;;;7.50;73.20;;;;;;5059159;28;19936;-66
2022/03/26 04:59:19;;;;;;;;;;;7.50;73.30;;;;;;5059977;28;19913;-66
2022/03/26 05:01:47;;;;;;;;;;;7.40;73.20;;;;;;5050052;28;19913;-66
2022/03/26 05:04:13;;;;;;;;;;;7.40;73.20;;;;;;5060228;28;19965;-66
2022/03/26 05:06:38;;;;;;;;;;;7.40;73.30;;;;;;5037796;28;20604;-66
2022/03/26 05:09:04;;;;;;;;;;;7.40;73.20;;;;;;5059691;28;19921;-66
2022/03/26 05:11:29;;;;;;;;;;;7.40;73.30;;;;;;5052739;28;19917;-66
2022/03/26 05:13:55;;;;;;;;;;;7.40;73.30;;;;;;5072729;28;20003;-66
2022/03/26 05:16:20;;;;;;;;;;;7.30;73.20;;;;;;5064544;28;19997;-66
2022/03/26 05:18:46;;;;;;;;;;;7.40;73.30;;;;;;5058363;28;20015;-66
2022/03/26 05:21:11;;;;;;;;;;;7.30;73.30;;;;;;5061893;28;20457;-66
2022/03/26 05:23:37;;;;;;;;;;;7.30;73.30;;;;;;5061155;28;19927;-66
2022/03/26 05:26:03;;;;;;;;;;;7.30;73.30;;;;;;5044937;28;20723;-66
2022/03/26 05:28:28;;;;;;;;;;;7.30;73.30;;;;;;5057466;28;20401;-66
2022/03/26 05:30:54;;;;;;;;;;;7.30;73.30;;;;;;5061208;28;19916;-66
2022/03/26 05:33:20;;;;;;;;;;;7.30;73.50;;;;;;5031516;28;20600;-66
2022/03/26 05:35:45;;;;;;;;;;;7.30;73.30;;;;;;5058874;28;19944;-66
2022/03/26 05:38:11;;;;;;;;;;;7.30;73.30;;;;;;5062548;28;19912;-66
2022/03/26 05:40:36;;;;;;;;;;;7.30;73.30;;;;;;5060090;28;19964;-66
2022/03/26 05:43:02;;;;;;;;;;;7.20;73.30;;;;;;5059998;28;19913;-66
2022/03/26 05:45:29;;;;;;;;;;;7.20;73.20;;;;;;5055455;28;19921;-66
2022/03/26 05:47:59;;;;;;;;;;;7.20;73.20;;;;;;5061541;28;19920;-66
2022/03/26 05:50:29;;;;;;;;;;;7.20;73.30;;;;;;5057033;28;20015;-66
2022/03/26 05:52:54;;;;;;;;;;;7.20;73.30;;;;;;5052513;28;19917;-66
2022/03/26 05:55:20;;;;;;;;;;;7.20;73.30;;;;;;5057648;28;19916;-66
2022/03/26 05:57:45;;;;;;;;;;;7.20;73.30;;;;;;5062900;28;19962;-66
2022/03/26 06:00:11;;;;;;;;;;;7.20;73.30;;;;;;5060070;28;19916;-66
2022/03/26 06:02:37;;;;;;;;;;;7.20;73.30;;;;;;5054679;28;20014;-66
2022/03/26 06:05:04;;;;;;;;;;;7.20;73.30;;;;;;5056267;28;19948;-66
2022/03/26 06:07:29;;;;;;;;;;;7.20;73.30;;;;;;5039931;28;19924;-66
2022/03/26 06:09:55;;;;;;;;;;;7.20;73.30;;;;;;5040491;28;19917;-66
2022/03/26 06:12:21;;;;;;;;;;;7.20;73.30;;;;;;5050922;28;19908;-66
2022/03/26 06:14:46;;;;;;;;;;;7.20;73.40;;;;;;5059337;28;19940;-66
2022/03/26 06:17:12;;;;;;;;;;;7.20;73.30;;;;;;5058409;28;20005;-66
2022/03/26 06:19:38;;;;;;;;;;;7.20;73.30;;;;;;5055385;28;20015;-66
2022/03/26 06:22:04;;;;;;;;;;;7.20;73.50;;;;;;5051551;28;19912;-66
2022/03/26 06:24:30;;;;;;;;;;;7.20;73.40;;;;;;5062743;28;19979;-66
2022/03/26 06:26:55;;;;;;;;;;;7.20;73.30;;;;;;5055961;28;19991;-66
2022/03/26 06:29:21;;;;;;;;;;;7.20;73.30;;;;;;5041821;28;19955;-66
2022/03/26 06:31:46;;;;;;;;;;;7.20;73.90;;;;;;5033043;28;19913;-66
2022/03/26 06:34:12;;;;;;;;;;;7.20;73.20;;;;;;5060589;28;19924;-66
2022/03/26 06:36:39;;;;;;;;;;;7.20;73.30;;;;;;5056022;28;20332;-66
2022/03/26 06:39:06;;;;;;;;;;;7.20;73.20;;;;;;5050823;28;20536;-66
2022/03/26 06:41:32;;;;;;;;;;;7.20;73.20;;;;;;5036844;28;19959;-66
2022/03/26 06:43:57;;;;;;;;;;;7.20;73.30;;;;;;5055949;28;19983;-66
2022/03/26 06:46:23;;;;;;;;;;;7.20;73.30;;;;;;5055813;28;19919;-66
2022/03/26 06:48:48;;;;;;;;;;;7.30;73.30;;;;;;5051917;28;20000;-66
2022/03/26 06:51:14;;;;;;;;;;;7.30;73.20;;;;;;5062715;28;19919;-66
2022/03/26 06:53:39;;;;;;;;;;;7.30;73.20;;;;;;5046059;28;19912;-66
2022/03/26 06:56:05;;;;;;;;;;;7.30;73.20;;;;;;5052267;28;19921;-66
2022/03/26 06:58:31;;;;;;;;;;;7.30;73.10;;;;;;5061441;28;19908;-66
2022/03/26 07:00:58;;;;;;;;;;;7.30;73.10;;;;;;5038299;28;20190;-66
2022/03/26 07:03:24;;;;;;;;;;;7.30;73.10;;;;;;5037191;28;19966;-66
2022/03/26 07:05:50;;;;;;;;;;;7.40;73.10;;;;;;5047501;28;19921;-66
2022/03/26 07:08:16;;;;;;;;;;;7.30;73.00;;;;;;5059732;28;19912;-66
2022/03/26 07:10:44;;;;;;;;;;;7.40;73.00;;;;;;5032877;28;19961;-66
2022/03/26 07:13:11;;;;;;;;;;;7.40;73.00;;;;;;5048725;28;19916;-66
2022/03/26 07:15:36;;;;;;;;;;;7.40;72.90;;;;;;5055465;28;19908;-66
2022/03/26 07:18:02;;;;;;;;;;;7.40;72.80;;;;;;5060958;28;19917;-66
2022/03/26 07:20:27;;;;;;;;;;;7.50;72.90;;;;;;5054029;28;19917;-66
2022/03/26 07:22:53;;;;;;;;;;;7.40;72.80;;;;;;5046297;28;19920;-66
2022/03/26 07:25:18;;;;;;;;;;;7.50;72.70;;;;;;5062899;28;19915;-66
2022/03/26 07:27:44;;;;;;;;;;;7.50;72.80;;;;;;5058374;28;19913;-66
2022/03/26 07:30:10;;;;;;;;;;;7.50;72.60;;;;;;5028364;28;19916;-66
2022/03/26 07:32:35;;;;;;;;;;;7.50;72.40;;;;;;5052775;28;19940;-66
2022/03/26 07:35:01;;;;;;;;;;;7.60;72.30;;;;;;5052748;28;19908;-66
2022/03/26 07:37:27;;;;;;;;;;;7.60;72.30;;;;;;5054823;28;20480;-66
2022/03/26 07:39:52;;;;;;;;;;;7.70;72.20;;;;;;5051725;28;20046;-66
2022/03/26 07:42:18;;;;;;;;;;;7.70;72.00;;;;;;5057536;28;19996;-66
2022/03/26 07:44:44;;;;;;;;;;;7.80;71.80;;;;;;5062302;28;19951;-66
2022/03/26 07:47:09;;;;;;;;;;;7.80;71.70;;;;;;5043437;28;19918;-66
2022/03/26 07:49:35;;;;;;;;;;;7.90;71.70;;;;;;5055827;28;19913;-66
2022/03/26 07:52:00;;;;;;;;;;;8.00;71.70;;;;;;5047315;28;20004;-66
2022/03/26 07:54:26;;;;;;;;;;;8.00;71.50;;;;;;5035920;28;19908;-66
2022/03/26 07:56:52;;;;;;;;;;;8.10;71.30;;;;;;5053708;28;20609;-66
2022/03/26 07:59:17;;;;;;;;;;;8.20;71.20;;;;;;5055839;28;19916;-66
2022/03/26 08:01:43;;;;;;;;;;;8.30;71.00;;;;;;5059205;28;19913;-66
2022/03/26 08:04:09;;;;;;;;;;;8.40;70.90;;;;;;5055926;28;19912;-66
2022/03/26 08:06:34;;;;;;;;;;;8.40;70.70;;;;;;5054193;28;20002;-66
2022/03/26 08:09:00;;;;;;;;;;;8.50;70.80;;;;;;5056376;28;19913;-66
2022/03/26 08:11:25;;;;;;;;;;;8.60;70.40;;;;;;5044548;28;20065;-66
2022/03/26 08:13:51;;;;;;;;;;;8.60;70.30;;;;;;5057226;28;20013;-66
2022/03/26 08:16:16;;;;;;;;;;;8.70;70.50;;;;;;5053195;28;19920;-66
2022/03/26 08:18:44;;;;;;;;;;;8.80;70.40;;;;;;5041390;28;20578;-66
2022/03/26 08:21:10;;;;;;;;;;;8.90;70.40;;;;;;5058250;28;19912;-66
2022/03/26 08:23:35;;;;;;;;;;;9.00;69.80;;;;;;5057179;28;19963;-66
2022/03/26 08:28:45;;;;;;;;;;;9.10;69.70;;;;;;5059857;28;20396;-66
2022/03/26 08:31:13;;;;;;;;;;;9.20;69.60;;;;;;5056530;28;19954;-66
2022/03/26 08:33:41;;;;;;;;;;;9.20;69.10;;;;;;5060198;28;19913;-66
2022/03/26 08:36:07;;;;;;;;;;;9.30;69.00;;;;;;5057089;28;20475;-66
2022/03/26 08:38:32;;;;;;;;;;;9.30;68.90;;;;;;5032213;28;19917;-66
2022/03/26 08:40:58;;;;;;;;;;;9.40;68.90;;;;;;5056841;28;19919;-66
2022/03/26 08:43:24;;;;;;;;;;;9.40;68.80;;;;;;5057582;28;20289;-66
2022/03/26 08:45:49;;;;;;;;;;;9.50;68.90;;;;;;5056676;28;19965;-66
2022/03/26 08:48:15;;;;;;;;;;;9.60;68.70;;;;;;5059402;28;19973;-66
2022/03/26 08:50:41;;;;;;;;;;;9.60;68.60;;;;;;5056026;28;19999;-66
2022/03/26 08:53:07;;;;;;;;;;;9.60;68.60;;;;;;5050258;28;20475;-66
2022/03/26 08:55:32;;;;;;;;;;;9.70;68.80;;;;;;5058698;28;19912;-66
2022/03/26 08:57:58;;;;;;;;;;;9.70;68.60;;;;;;5056825;28;19966;-66
2022/03/26 09:00:25;;;;;;;;;;;9.80;68.60;;;;;;5057840;28;19912;-66
2022/03/26 09:02:50;;;;;;;;;;;9.80;68.60;;;;;;5030581;28;19924;-66
2022/03/26 09:05:16;;;;;;;;;;;9.80;68.60;;;;;;5058657;28;19917;-66
2022/03/26 09:07:41;;;;;;;;;;;9.90;68.40;;;;;;5061270;28;19970;-66
2022/03/26 09:10:08;;;;;;;;;;;9.90;68.30;;;;;;5055820;28;20008;-66
2022/03/26 09:12:33;;;;;;;;;;;9.90;68.20;;;;;;5056956;28;19912;-66
2022/03/26 09:14:59;;;;;;;;;;;10.00;68.40;;;;;;5062647;28;19946;-66
2022/03/26 09:17:25;;;;;;;;;;;10.00;68.20;;;;;;5034183;28;20436;-66
2022/03/26 09:19:50;;;;;;;;;;;10.10;68.40;;;;;;5055705;28;19935;-66
2022/03/26 09:22:16;;;;;;;;;;;10.10;68.10;;;;;;5058836;28;19916;-66
2022/03/26 09:24:42;;;;;;;;;;;10.10;68.00;;;;;;5067709;28;19914;-66
2022/03/26 09:27:07;;;;;;;;;;;10.10;67.90;;;;;;5043672;28;20453;-66
2022/03/26 09:29:33;;;;;;;;;;;10.20;67.90;;;;;;5055568;28;19916;-66
2022/03/26 09:31:59;;;;;;;;;;;10.30;67.80;;;;;;5062178;28;19978;-66
2022/03/26 09:34:24;;;;;;;;;;;10.30;67.80;;;;;;5062077;28;19917;-66
2022/03/26 09:36:50;;;;;;;;;;;10.30;67.90;;;;;;5058038;28;20007;-66
2022/03/26 09:39:15;;;;;;;;;;;10.30;67.90;;;;;;5044682;28;19964;-66
2022/03/26 09:41:41;;;;;;;;;;;10.40;68.00;;;;;;5059717;28;19908;-66
2022/03/26 09:44:06;;;;;;;;;;;10.50;67.80;;;;;;5060089;28;19936;-66
2022/03/26 09:46:35;;;;;;;;;;;10.50;67.70;;;;;;5055180;28;20330;-66
2022/03/26 09:49:02;;;;;;;;;;;10.50;67.80;;;;;;5054443;28;19920;-66
2022/03/26 09:51:27;;;;;;;;;;;10.60;67.80;;;;;;5063486;28;19966;-66
2022/03/26 09:53:53;;;;;;;;;;;10.60;67.80;;;;;;5055566;28;20454;-66
2022/03/26 09:56:20;;;;;;;;;;;10.60;67.70;;;;;;5052481;28;19916;-66
2022/03/26 09:58:45;;;;;;;;;;;10.70;67.70;;;;;;5038861;28;19913;-66
2022/03/26 10:01:11;;;;;;;;;;;10.70;67.70;;;;;;5055768;28;19920;-66
2022/03/26 10:03:39;;;;;;;;;;;10.80;67.70;;;;;;5036401;28;20460;-66
2022/03/26 10:06:07;;;;;;;;;;;10.80;68.20;;;;;;5053792;28;19924;-66
2022/03/26 10:08:36;;;;;;;;;;;10.90;67.60;;;;;;5063379;28;19909;-66
2022/03/26 10:11:02;;;;;;;;;;;10.90;67.70;;;;;;5059508;28;19919;-66
2022/03/26 10:13:34;;;;;;;;;;;11.00;67.80;;;;;;5054613;28;20257;-66
2022/03/26 10:16:10;;;;;;;;;;;11.00;67.60;;;;;;5062641;28;20316;-66
2022/03/26 10:18:40;;;;;;;;;;;11.00;67.60;;;;;;5053695;28;20007;-66
2022/03/26 10:21:07;;;;;;;;;;;11.10;68.30;;;;;;5040015;28;20451;-66
2022/03/26 10:23:33;;;;;;;;;;;11.20;68.00;;;;;;5053168;28;19966;-66
2022/03/26 10:26:05;;;;;;;;;;;11.20;67.90;;;;;;5064534;28;19912;-66
2022/03/26 10:28:31;;;;;;;;;;;11.30;68.00;;;;;;5056087;28;20377;-66
2022/03/26 10:34:23;;;;;;;;;;;11.40;68.10;;;;;;5057520;28;19973;-66
2022/03/26 10:36:56;;;;;;;;;;;11.40;68.00;;;;;;5053071;28;19909;-66
2022/03/26 10:39:26;;;;;;;;;;;11.50;68.10;;;;;;5031334;28;19916;-66
2022/03/26 10:41:52;;;;;;;;;;;11.60;68.20;;;;;;5054425;28;19921;-66
2022/03/26 10:44:19;;;;;;;;;;;11.60;68.30;;;;;;5054091;28;19994;-66
2022/03/26 10:46:50;;;;;;;;;;;11.70;68.10;;;;;;5055157;28;19919;-66
2022/03/26 10:49:28;;;;;;;;;;;11.80;68.00;;;;;;5051119;28;19946;-66
2022/03/26 10:51:54;;;;;;;;;;;11.80;68.20;;;;;;5060758;28;19952;-66
2022/03/26 10:54:26;;;;;;;;;;;11.90;68.30;;;;;;5057748;28;19943;-66
2022/03/26 10:56:52;;;;;;;;;;;12.00;68.30;;;;;;5034155;28;19944;-66
2022/03/26 10:59:18;;;;;;;;;;;12.10;68.10;;;;;;5055311;28;19959;-66
2022/03/26 11:01:43;;;;;;;;;;;12.30;68.40;;;;;;5059841;28;20341;-66
2022/03/26 11:04:09;;;;;;;;;;;12.30;68.20;;;;;;5042203;28;19917;-66
2022/03/26 11:06:38;;;;;;;;;;;12.50;68.60;;;;;;5051386;28;19913;-66
2022/03/26 11:09:03;;;;;;;;;;;12.70;68.40;;;;;;5056564;28;20015;-66
2022/03/26 11:11:29;;;;;;;;;;;12.80;68.10;;;;;;5044803;28;20023;-66
2022/03/26 11:14:01;;;;;;;;;;;12.90;68.10;;;;;;5055824;28;19919;-66
2022/03/26 11:16:39;;;;;;;;;;;13.00;67.90;;;;;;5059336;28;19990;-66
2022/03/26 11:19:11;;;;;;;;;;;13.10;67.90;;;;;;5062020;28;20324;-66
2022/03/26 11:21:55;;;;;;;;;;;13.30;67.60;;;;;;5054348;28;19924;-66
2022/03/26 11:24:41;;;;;;;;;;;13.40;67.70;;;;;;5054218;28;19912;-66
2022/03/26 11:27:21;;;;;;;;;;;13.60;67.40;;;;;;5059558;28;19913;-65
2022/03/26 11:29:47;;;;;;;;;;;13.70;67.00;;;;;;5054897;28;19919;-66
2022/03/26 11:32:15;;;;;;;;;;;13.90;66.80;;;;;;5055399;28;19917;-66
2022/03/26 11:34:40;;;;;;;;;;;14.00;66.50;;;;;;5055226;28;20335;-66
2022/03/26 11:37:11;;;;;;;;;;;14.10;66.70;;;;;;5057832;28;19995;-66
2022/03/26 11:39:47;;;;;;;;;;;14.20;66.50;;;;;;5052108;28;19999;-66
2022/03/26 11:42:13;;;;;;;;;;;14.30;66.40;;;;;;5055208;28;19923;-66
2022/03/26 11:44:45;;;;;;;;;;;14.40;66.40;;;;;;5056219;28;20404;-66
2022/03/26 11:53:08;;;;;;;;;;;14.70;66.30;;;;;;5056726;28;20402;-65
2022/03/26 11:55:46;;;;;;;;;;;14.90;66.10;;;;;;5057831;28;20626;-66
2022/03/26 11:58:24;;;;;;;;;;;15.00;66.10;;;;;;5053450;28;19948;-66
2022/03/26 12:00:53;;;;;;;;;;;15.10;66.50;;;;;;5061759;28;20636;-65
2022/03/26 12:03:23;;;;;;;;;;;15.10;65.90;;;;;;5056158;28;20020;-66
2022/03/26 12:08:35;;;;;;;;;;;15.30;65.60;;;;;;5049885;28;20383;-66
2022/03/26 12:11:00;;;;;;;;;;;15.30;65.60;;;;;;5054200;28;19966;-66
2022/03/26 12:13:31;;;;;;;;;;;15.40;66.10;;;;;;5055437;28;19908;-66
2022/03/26 12:16:00;;;;;;;;;;;15.50;65.70;;;;;;5052018;28;20432;-66
2022/03/26 12:18:36;;;;;;;;;;;15.50;65.50;;;;;;5039259;28;19916;-66
2022/03/26 12:21:08;;;;;;;;;;;15.60;65.40;;;;;;5055427;28;19924;-66
2022/03/26 12:23:34;;;;;;;;;;;15.60;65.40;;;;;;5060762;28;20461;-66
2022/03/26 12:25:59;;;;;;;;;;;15.60;65.40;;;;;;5055131;28;19913;-66
2022/03/26 12:28:25;;;;;;;;;;;15.70;65.40;;;;;;5061803;28;19912;-66
2022/03/26 12:30:52;;;;;;;;;;;15.70;65.60;;;;;;5056317;28;20369;-66
2022/03/26 12:33:17;;;;;;;;;;;15.70;66.10;;;;;;5057413;28;19909;-66
2022/03/26 12:35:44;;;;;;;;;;;15.80;65.60;;;;;;5041235;28;19970;-66
2022/03/26 12:38:10;;;;;;;;;;;15.80;65.70;;;;;;5052754;28;19913;-66
2022/03/26 12:40:38;;;;;;;;;;;15.80;65.80;;;;;;5054503;28;19913;-66
2022/03/26 12:43:05;;;;;;;;;;;15.90;66.40;;;;;;5059592;28;19932;-66
2022/03/26 12:45:31;;;;;;;;;;;15.90;66.10;;;;;;5061346;28;19913;-66
2022/03/26 12:47:57;;;;;;;;;;;15.90;66.00;;;;;;5052493;28;20397;-66
2022/03/26 12:50:23;;;;;;;;;;;16.00;66.70;;;;;;5052348;28;19928;-66
2022/03/26 12:52:49;;;;;;;;;;;16.00;67.30;;;;;;5058748;28;20039;-66
2022/03/26 12:55:16;;;;;;;;;;;16.10;66.40;;;;;;5057508;28;20624;-66
2022/03/26 13:00:27;;;;;;;;;;;16.20;66.40;;;;;;5058896;28;19965;-66
2022/03/26 13:03:03;;;;;;;;;;;16.20;66.80;;;;;;5051514;28;20003;-66
2022/03/26 13:05:30;;;;;;;;;;;16.20;66.60;;;;;;5060423;28;20306;-66
2022/03/26 13:07:56;;;;;;;;;;;16.30;66.50;;;;;;5037233;28;19954;-66
2022/03/26 13:10:48;;;;;;;;;;;16.30;66.30;;;;;;5062104;28;19921;-66
2022/03/26 13:13:13;;;;;;;;;;;16.30;66.70;;;;;;5052109;28;19987;-66
2022/03/26 13:15:39;;;;;;;;;;;16.40;66.60;;;;;;5064431;28;19940;-66
2022/03/26 13:18:06;;;;;;;;;;;16.40;66.30;;;;;;5052198;28;19970;-66
2022/03/26 13:20:33;;;;;;;;;;;16.50;66.60;;;;;;5056225;28;19913;-66
2022/03/26 13:23:03;;;;;;;;;;;16.50;66.60;;;;;;5055749;28;19924;-66
2022/03/26 13:25:36;;;;;;;;;;;16.50;66.80;;;;;;5062444;28;19920;-66
2022/03/26 13:28:17;;;;;;;;;;;16.60;66.90;;;;;;5060236;28;19947;-66
2022/03/26 13:30:44;;;;;;;;;;;16.60;66.90;;;;;;5069968;28;19964;-66
2022/03/26 13:33:12;;;;;;;;;;;16.70;67.00;;;;;;5054994;28;19916;-66
2022/03/26 13:35:39;;;;;;;;;;;16.70;66.70;;;;;;5059691;28;19912;-66
2022/03/26 13:38:09;;;;;;;;;;;16.70;66.90;;;;;;5056246;28;19948;-66
2022/03/26 13:40:35;;;;;;;;;;;16.80;66.90;;;;;;5052419;28;20392;-66
2022/03/26 13:43:01;;;;;;;;;;;16.80;66.60;;;;;;5064412;28;19916;-66
2022/03/26 13:45:27;;;;;;;;;;;16.80;66.60;;;;;;5059629;28;20380;-66
2022/03/26 13:47:56;;;;;;;;;;;16.90;66.40;;;;;;5040441;28;19924;-66
2022/03/26 13:50:22;;;;;;;;;;;16.90;66.50;;;;;;5053585;28;20349;-66
2022/03/26 13:52:50;;;;;;;;;;;16.90;66.50;;;;;;5077215;28;19917;-66
2022/03/26 13:55:28;;;;;;;;;;;17.00;66.80;;;;;;5037273;28;19952;-66
2022/03/26 13:57:54;;;;;;;;;;;17.00;66.70;;;;;;5049899;28;19944;-66
2022/03/26 14:00:22;;;;;;;;;;;17.00;66.40;;;;;;5054175;28;19912;-66
2022/03/26 14:02:48;;;;;;;;;;;17.10;66.60;;;;;;5035294;28;19913;-66
2022/03/26 14:05:17;;;;;;;;;;;17.10;66.00;;;;;;5054229;28;19917;-66
2022/03/26 14:07:43;;;;;;;;;;;17.10;65.50;;;;;;5052676;28;19913;-66
2022/03/26 14:10:10;;;;;;;;;;;17.10;65.50;;;;;;5062019;28;19927;-66
2022/03/26 14:12:36;;;;;;;;;;;17.20;65.50;;;;;;5057289;28;19942;-66
2022/03/26 14:15:02;;;;;;;;;;;17.10;65.40;;;;;;5053928;28;19912;-66
2022/03/26 14:17:27;;;;;;;;;;;17.20;65.00;;;;;;5063123;28;19912;-66
2022/03/26 14:19:52;;;;;;;;;;;17.20;64.40;;;;;;5058751;28;19921;-66
2022/03/26 14:22:18;;;;;;;;;;;17.20;64.40;;;;;;5054835;28;20557;-66
2022/03/26 14:24:43;;;;;;;;;;;17.20;64.60;;;;;;5057738;28;19916;-66
2022/03/26 14:27:09;;;;;;;;;;;17.20;64.80;;;;;;5059304;28;19920;-66
2022/03/26 14:29:34;;;;;;;;;;;17.20;64.50;;;;;;5056768;28;20015;-66
2022/03/26 14:32:00;;;;;;;;;;;17.20;64.60;;;;;;5051653;28;20507;-66
2022/03/26 14:34:26;;;;;;;;;;;17.20;64.30;;;;;;5056054;28;19909;-66
2022/03/26 14:36:52;;;;;;;;;;;17.20;64.60;;;;;;5063438;28;20336;-66
2022/03/26 14:39:18;;;;;;;;;;;17.20;65.00;;;;;;5056091;28;20023;-66